KNYG/NYG METAR and TAF weather

Enter ICAO airport designator
Station Type Date Time Source
KNYG METAR 2021/08/04 19:56 UTC NOAA

KNYG 041956Z 03010KT 10SM CLR 28/13 A3008 RMK AO2 SLP186 T02780128 PNO


Station Type Date Time Source
KNYG Decoded METAR 2021/08/04 19:56 UTC NOAA

QUANTICO MARINE CORPS AIRFAC, VA, United States (KNYG) 38-30N 077-18W 3M
Aug 04, 2021 - 03:56 PM EDT / 2021.08.04 1956 UTC
Wind: from the NNE (030 degrees) at 12 MPH (10 KT):0
Visibility: 10 mile(s):0
Sky conditions: clear
Temperature: 82.0 F (27.8 C)
Dew Point: 55.0 F (12.8 C)
Relative Humidity: 39%
Pressure (altimeter): 30.08 in. Hg (1018 hPa)
ob: KNYG 041956Z 03010KT 10SM CLR 28/13 A3008 RMK AO2 SLP186 T02780128 PNO
cycle: 20

Station Type Date Time Source
KNYG TAF 2021/08/04 15:49 UTC NOAA

TAF KNYG 0415/0515 03009KT 9999 FEW016 OVC100 QNH3006INS
TEMPO 0415/0421 05009G25KT 9999 SCT050
BECMG 0421/0423 01009KT 9999 SCT050 QNH305INS T26/0419Z T17/0510Z

Example: see airport list